sensor_id;sensor_type;location;lat;lon;timestamp;temperature;humidity
37460;DHT22;23318;50.966;5.284;2023-04-24T00:00:17;9.60;99.90
37460;DHT22;23318;50.966;5.284;2023-04-24T00:02:43;9.60;99.90
37460;DHT22;23318;50.966;5.284;2023-04-24T00:05:14;9.50;99.90
37460;DHT22;23318;50.966;5.284;2023-04-24T00:07:44;9.60;99.90
37460;DHT22;23318;50.966;5.284;2023-04-24T00:10:10;9.60;99.90
37460;DHT22;23318;50.966;5.284;2023-04-24T00:12:37;9.60;99.90
37460;DHT22;23318;50.966;5.284;2023-04-24T00:15:03;9.60;99.90
37460;DHT22;23318;50.966;5.284;2023-04-24T00:17:29;9.50;99.90
37460;DHT22;23318;50.966;5.284;2023-04-24T00:19:56;9.60;99.90
37460;DHT22;23318;50.966;5.284;2023-04-24T00:22:27;9.50;99.90
37460;DHT22;23318;50.966;5.284;2023-04-24T00:24:54;9.50;99.90
37460;DHT22;23318;50.966;5.284;2023-04-24T00:27:20;9.50;99.90
37460;DHT22;23318;50.966;5.284;2023-04-24T00:29:46;9.50;99.90
37460;DHT22;23318;50.966;5.284;2023-04-24T00:32:11;9.40;99.90
37460;DHT22;23318;50.966;5.284;2023-04-24T00:34:37;9.50;99.90
37460;DHT22;23318;50.966;5.284;2023-04-24T00:37:03;9.50;99.90
37460;DHT22;23318;50.966;5.284;2023-04-24T00:39:29;9.50;99.90
37460;DHT22;23318;50.966;5.284;2023-04-24T00:41:54;9.50;99.90
37460;DHT22;23318;50.966;5.284;2023-04-24T00:44:22;9.50;99.90
37460;DHT22;23318;50.966;5.284;2023-04-24T00:46:48;9.40;99.90
37460;DHT22;23318;50.966;5.284;2023-04-24T00:49:18;9.40;99.90
37460;DHT22;23318;50.966;5.284;2023-04-24T00:51:44;9.40;99.90
37460;DHT22;23318;50.966;5.284;2023-04-24T00:54:12;9.40;99.90
37460;DHT22;23318;50.966;5.284;2023-04-24T00:56:37;9.40;99.90
37460;DHT22;23318;50.966;5.284;2023-04-24T00:59:04;9.40;99.90
37460;DHT22;23318;50.966;5.284;2023-04-24T01:01:30;9.40;99.90
37460;DHT22;23318;50.966;5.284;2023-04-24T01:03:57;9.40;99.90
37460;DHT22;23318;50.966;5.284;2023-04-24T01:06:23;9.40;99.90
37460;DHT22;23318;50.966;5.284;2023-04-24T01:08:52;9.40;99.90
37460;DHT22;23318;50.966;5.284;2023-04-24T01:11:19;9.50;99.90
37460;DHT22;23318;50.966;5.284;2023-04-24T01:13:46;9.60;99.90
37460;DHT22;23318;50.966;5.284;2023-04-24T01:16:12;9.50;99.90
37460;DHT22;23318;50.966;5.284;2023-04-24T01:18:38;9.50;99.90
37460;DHT22;23318;50.966;5.284;2023-04-24T01:21:04;9.50;99.90
37460;DHT22;23318;50.966;5.284;2023-04-24T01:23:31;9.50;99.90
37460;DHT22;23318;50.966;5.284;2023-04-24T01:25:56;9.40;99.90
37460;DHT22;23318;50.966;5.284;2023-04-24T01:28:22;9.40;99.90
37460;DHT22;23318;50.966;5.284;2023-04-24T01:30:48;9.40;99.90
37460;DHT22;23318;50.966;5.284;2023-04-24T01:33:14;9.40;99.90
37460;DHT22;23318;50.966;5.284;2023-04-24T01:35:40;9.40;99.90
37460;DHT22;23318;50.966;5.284;2023-04-24T01:38:05;9.30;99.90
37460;DHT22;23318;50.966;5.284;2023-04-24T01:40:32;9.30;99.90
37460;DHT22;23318;50.966;5.284;2023-04-24T01:42:58;9.30;99.90
37460;DHT22;23318;50.966;5.284;2023-04-24T01:45:24;9.30;99.90
37460;DHT22;23318;50.966;5.284;2023-04-24T01:47:50;9.20;99.90
37460;DHT22;23318;50.966;5.284;2023-04-24T01:50:16;9.20;99.90
37460;DHT22;23318;50.966;5.284;2023-04-24T01:52:42;9.20;99.90
37460;DHT22;23318;50.966;5.284;2023-04-24T01:55:08;9.20;99.90
37460;DHT22;23318;50.966;5.284;2023-04-24T01:57:34;9.20;99.90
37460;DHT22;23318;50.966;5.284;2023-04-24T02:00:00;9.30;99.90
37460;DHT22;23318;50.966;5.284;2023-04-24T02:02:26;9.20;99.90
37460;DHT22;23318;50.966;5.284;2023-04-24T02:04:55;9.20;99.90
37460;DHT22;23318;50.966;5.284;2023-04-24T02:07:21;9.00;99.90
37460;DHT22;23318;50.966;5.284;2023-04-24T02:09:47;8.90;99.90
37460;DHT22;23318;50.966;5.284;2023-04-24T02:12:13;8.90;99.90
37460;DHT22;23318;50.966;5.284;2023-04-24T02:14:39;8.90;99.90
37460;DHT22;23318;50.966;5.284;2023-04-24T02:17:04;8.90;99.90
37460;DHT22;23318;50.966;5.284;2023-04-24T02:19:30;8.90;99.90
37460;DHT22;23318;50.966;5.284;2023-04-24T02:21:56;8.80;99.90
37460;DHT22;23318;50.966;5.284;2023-04-24T02:24:22;8.90;99.90
37460;DHT22;23318;50.966;5.284;2023-04-24T02:26:47;8.80;99.90
37460;DHT22;23318;50.966;5.284;2023-04-24T02:29:13;8.80;99.90
37460;DHT22;23318;50.966;5.284;2023-04-24T02:31:39;8.80;99.90
37460;DHT22;23318;50.966;5.284;2023-04-24T02:34:04;8.70;99.90
37460;DHT22;23318;50.966;5.284;2023-04-24T02:36:30;8.70;99.90
37460;DHT22;23318;50.966;5.284;2023-04-24T02:38:56;8.80;99.90
37460;DHT22;23318;50.966;5.284;2023-04-24T02:41:22;8.70;99.90
37460;DHT22;23318;50.966;5.284;2023-04-24T02:43:48;8.70;99.90
37460;DHT22;23318;50.966;5.284;2023-04-24T02:46:13;8.70;99.90
37460;DHT22;23318;50.966;5.284;2023-04-24T02:48:39;8.70;99.90
37460;DHT22;23318;50.966;5.284;2023-04-24T02:51:05;8.60;99.90
37460;DHT22;23318;50.966;5.284;2023-04-24T02:53:32;8.50;99.90
37460;DHT22;23318;50.966;5.284;2023-04-24T02:55:57;8.50;99.90
37460;DHT22;23318;50.966;5.284;2023-04-24T02:58:23;8.50;99.90
37460;DHT22;23318;50.966;5.284;2023-04-24T03:00:53;8.50;99.90
37460;DHT22;23318;50.966;5.284;2023-04-24T03:03:19;8.50;99.90
37460;DHT22;23318;50.966;5.284;2023-04-24T03:05:44;8.40;99.90
37460;DHT22;23318;50.966;5.284;2023-04-24T03:08:11;8.50;99.90
37460;DHT22;23318;50.966;5.284;2023-04-24T03:10:36;8.50;99.90
37460;DHT22;23318;50.966;5.284;2023-04-24T03:13:02;8.50;99.90
37460;DHT22;23318;50.966;5.284;2023-04-24T03:15:28;8.40;99.90
37460;DHT22;23318;50.966;5.284;2023-04-24T03:17:53;8.40;99.90
37460;DHT22;23318;50.966;5.284;2023-04-24T03:20:19;8.40;99.90
37460;DHT22;23318;50.966;5.284;2023-04-24T03:22:45;8.40;99.90
37460;DHT22;23318;50.966;5.284;2023-04-24T03:25:10;8.30;99.90
37460;DHT22;23318;50.966;5.284;2023-04-24T03:27:36;8.20;99.90
37460;DHT22;23318;50.966;5.284;2023-04-24T03:30:03;8.10;99.90
37460;DHT22;23318;50.966;5.284;2023-04-24T03:32:29;8.20;99.90
37460;DHT22;23318;50.966;5.284;2023-04-24T03:34:55;8.10;99.90
37460;DHT22;23318;50.966;5.284;2023-04-24T03:37:20;8.20;99.90
37460;DHT22;23318;50.966;5.284;2023-04-24T03:39:46;8.20;99.90
37460;DHT22;23318;50.966;5.284;2023-04-24T03:42:12;8.10;99.90
37460;DHT22;23318;50.966;5.284;2023-04-24T03:44:37;8.20;99.90
37460;DHT22;23318;50.966;5.284;2023-04-24T03:47:03;8.20;99.90
37460;DHT22;23318;50.966;5.284;2023-04-24T03:49:29;8.10;99.90
37460;DHT22;23318;50.966;5.284;2023-04-24T03:51:54;8.20;99.90
37460;DHT22;23318;50.966;5.284;2023-04-24T03:54:20;8.10;99.90
37460;DHT22;23318;50.966;5.284;2023-04-24T03:56:45;8.10;99.90
37460;DHT22;23318;50.966;5.284;2023-04-24T03:59:11;8.20;99.90
37460;DHT22;23318;50.966;5.284;2023-04-24T04:01:38;8.10;99.90
37460;DHT22;23318;50.966;5.284;2023-04-24T04:04:05;8.10;99.90
37460;DHT22;23318;50.966;5.284;2023-04-24T04:06:31;8.10;99.90
37460;DHT22;23318;50.966;5.284;2023-04-24T04:08:57;8.20;99.90
37460;DHT22;23318;50.966;5.284;2023-04-24T04:11:23;8.20;99.90
37460;DHT22;23318;50.966;5.284;2023-04-24T04:13:49;8.10;99.90
37460;DHT22;23318;50.966;5.284;2023-04-24T04:16:15;8.10;99.90
37460;DHT22;23318;50.966;5.284;2023-04-24T04:18:44;8.10;99.90
37460;DHT22;23318;50.966;5.284;2023-04-24T04:21:10;8.10;99.90
37460;DHT22;23318;50.966;5.284;2023-04-24T04:23:36;8.00;99.90
37460;DHT22;23318;50.966;5.284;2023-04-24T04:26:02;8.00;99.90
37460;DHT22;23318;50.966;5.284;2023-04-24T04:28:29;7.90;99.90
37460;DHT22;23318;50.966;5.284;2023-04-24T04:30:57;7.90;99.90
37460;DHT22;23318;50.966;5.284;2023-04-24T04:33:23;7.90;99.90
37460;DHT22;23318;50.966;5.284;2023-04-24T04:35:49;7.90;99.90
37460;DHT22;23318;50.966;5.284;2023-04-24T04:38:17;7.90;99.90
37460;DHT22;23318;50.966;5.284;2023-04-24T04:40:44;7.80;99.90
37460;DHT22;23318;50.966;5.284;2023-04-24T04:43:10;7.90;99.90
37460;DHT22;23318;50.966;5.284;2023-04-24T04:45:37;7.90;99.90
37460;DHT22;23318;50.966;5.284;2023-04-24T04:48:04;7.90;99.90
37460;DHT22;23318;50.966;5.284;2023-04-24T04:50:33;7.90;99.90
37460;DHT22;23318;50.966;5.284;2023-04-24T04:52:58;7.90;99.90
37460;DHT22;23318;50.966;5.284;2023-04-24T04:55:24;7.80;99.90
37460;DHT22;23318;50.966;5.284;2023-04-24T04:57:50;7.80;99.90
37460;DHT22;23318;50.966;5.284;2023-04-24T05:00:16;7.90;99.90
37460;DHT22;23318;50.966;5.284;2023-04-24T05:02:42;7.90;99.90
37460;DHT22;23318;50.966;5.284;2023-04-24T05:05:08;7.90;99.90
37460;DHT22;23318;50.966;5.284;2023-04-24T05:07:34;7.90;99.90
37460;DHT22;23318;50.966;5.284;2023-04-24T05:10:00;8.00;99.90
37460;DHT22;23318;50.966;5.284;2023-04-24T05:12:25;8.00;99.90
37460;DHT22;23318;50.966;5.284;2023-04-24T05:14:52;8.00;99.90
37460;DHT22;23318;50.966;5.284;2023-04-24T05:17:18;8.00;99.90
37460;DHT22;23318;50.966;5.284;2023-04-24T05:19:44;8.10;99.90
37460;DHT22;23318;50.966;5.284;2023-04-24T05:22:10;8.10;99.90
37460;DHT22;23318;50.966;5.284;2023-04-24T05:24:37;8.00;99.90
37460;DHT22;23318;50.966;5.284;2023-04-24T05:27:03;8.00;99.90
37460;DHT22;23318;50.966;5.284;2023-04-24T05:29:30;8.00;99.90
37460;DHT22;23318;50.966;5.284;2023-04-24T05:31:57;8.00;99.90
37460;DHT22;23318;50.966;5.284;2023-04-24T05:34:23;8.00;99.90
37460;DHT22;23318;50.966;5.284;2023-04-24T05:36:49;8.10;99.90
37460;DHT22;23318;50.966;5.284;2023-04-24T05:39:16;8.10;99.90
37460;DHT22;23318;50.966;5.284;2023-04-24T05:41:42;8.00;99.90
37460;DHT22;23318;50.966;5.284;2023-04-24T05:44:07;8.00;99.90
37460;DHT22;23318;50.966;5.284;2023-04-24T05:46:33;8.10;99.90
37460;DHT22;23318;50.966;5.284;2023-04-24T05:48:59;8.00;99.90
37460;DHT22;23318;50.966;5.284;2023-04-24T05:51:24;7.90;99.90
37460;DHT22;23318;50.966;5.284;2023-04-24T05:53:51;7.90;99.90
37460;DHT22;23318;50.966;5.284;2023-04-24T05:56:17;7.90;99.90
37460;DHT22;23318;50.966;5.284;2023-04-24T05:58:42;7.90;99.90
37460;DHT22;23318;50.966;5.284;2023-04-24T06:01:08;7.90;99.90
37460;DHT22;23318;50.966;5.284;2023-04-24T06:03:35;7.90;99.90
37460;DHT22;23318;50.966;5.284;2023-04-24T06:06:00;7.90;99.90
37460;DHT22;23318;50.966;5.284;2023-04-24T06:08:26;7.80;99.90
37460;DHT22;23318;50.966;5.284;2023-04-24T06:10:52;7.80;99.90
37460;DHT22;23318;50.966;5.284;2023-04-24T06:13:17;7.80;99.90
37460;DHT22;23318;50.966;5.284;2023-04-24T06:15:43;7.80;99.90
37460;DHT22;23318;50.966;5.284;2023-04-24T06:18:09;7.80;99.90
37460;DHT22;23318;50.966;5.284;2023-04-24T06:20:38;7.80;99.90
37460;DHT22;23318;50.966;5.284;2023-04-24T06:23:05;7.80;99.90
37460;DHT22;23318;50.966;5.284;2023-04-24T06:25:30;7.80;99.90
37460;DHT22;23318;50.966;5.284;2023-04-24T06:27:56;7.80;99.90
37460;DHT22;23318;50.966;5.284;2023-04-24T06:30:22;7.80;99.90
37460;DHT22;23318;50.966;5.284;2023-04-24T06:32:48;7.80;99.90
37460;DHT22;23318;50.966;5.284;2023-04-24T06:35:13;7.80;99.90
37460;DHT22;23318;50.966;5.284;2023-04-24T06:37:41;7.70;99.90
37460;DHT22;23318;50.966;5.284;2023-04-24T06:40:07;7.70;99.90
37460;DHT22;23318;50.966;5.284;2023-04-24T06:42:33;7.70;99.90
37460;DHT22;23318;50.966;5.284;2023-04-24T06:45:00;7.70;99.90
37460;DHT22;23318;50.966;5.284;2023-04-24T06:47:26;7.70;99.90
37460;DHT22;23318;50.966;5.284;2023-04-24T06:49:51;7.70;99.90
37460;DHT22;23318;50.966;5.284;2023-04-24T06:52:18;7.70;99.90
37460;DHT22;23318;50.966;5.284;2023-04-24T06:54:44;7.80;99.90
37460;DHT22;23318;50.966;5.284;2023-04-24T06:57:09;7.70;99.90
37460;DHT22;23318;50.966;5.284;2023-04-24T06:59:36;7.60;99.90
37460;DHT22;23318;50.966;5.284;2023-04-24T07:02:02;7.60;99.90
37460;DHT22;23318;50.966;5.284;2023-04-24T07:04:28;7.80;99.90
37460;DHT22;23318;50.966;5.284;2023-04-24T07:06:54;7.70;99.90
37460;DHT22;23318;50.966;5.284;2023-04-24T07:09:24;7.70;99.90
37460;DHT22;23318;50.966;5.284;2023-04-24T07:11:51;7.90;99.90
37460;DHT22;23318;50.966;5.284;2023-04-24T07:14:17;7.90;99.90
37460;DHT22;23318;50.966;5.284;2023-04-24T07:16:43;7.90;99.90
37460;DHT22;23318;50.966;5.284;2023-04-24T07:19:09;8.00;99.90
37460;DHT22;23318;50.966;5.284;2023-04-24T07:21:35;8.10;99.90
37460;DHT22;23318;50.966;5.284;2023-04-24T07:24:01;8.00;99.90
37460;DHT22;23318;50.966;5.284;2023-04-24T07:26:29;8.00;99.90
37460;DHT22;23318;50.966;5.284;2023-04-24T07:28:55;7.90;99.90
37460;DHT22;23318;50.966;5.284;2023-04-24T07:31:21;8.00;99.90
37460;DHT22;23318;50.966;5.284;2023-04-24T07:33:47;8.10;99.90
37460;DHT22;23318;50.966;5.284;2023-04-24T07:36:13;8.00;99.90
37460;DHT22;23318;50.966;5.284;2023-04-24T07:38:42;8.10;99.90
37460;DHT22;23318;50.966;5.284;2023-04-24T07:41:08;8.10;99.90
37460;DHT22;23318;50.966;5.284;2023-04-24T07:43:34;8.10;99.90
37460;DHT22;23318;50.966;5.284;2023-04-24T07:46:00;8.20;99.90
37460;DHT22;23318;50.966;5.284;2023-04-24T07:48:25;8.20;99.90
37460;DHT22;23318;50.966;5.284;2023-04-24T07:50:52;8.10;99.90
37460;DHT22;23318;50.966;5.284;2023-04-24T07:53:18;8.10;99.90
37460;DHT22;23318;50.966;5.284;2023-04-24T07:55:43;8.20;99.90
37460;DHT22;23318;50.966;5.284;2023-04-24T07:58:09;8.20;99.90
37460;DHT22;23318;50.966;5.284;2023-04-24T08:00:35;8.10;99.90
37460;DHT22;23318;50.966;5.284;2023-04-24T08:03:01;8.00;99.90
37460;DHT22;23318;50.966;5.284;2023-04-24T08:05:27;8.10;99.90
37460;DHT22;23318;50.966;5.284;2023-04-24T08:07:54;8.10;99.90
37460;DHT22;23318;50.966;5.284;2023-04-24T08:10:21;8.10;99.90
37460;DHT22;23318;50.966;5.284;2023-04-24T08:12:47;8.10;99.90
37460;DHT22;23318;50.966;5.284;2023-04-24T08:15:12;8.30;99.90
37460;DHT22;23318;50.966;5.284;2023-04-24T08:17:38;8.30;99.90
37460;DHT22;23318;50.966;5.284;2023-04-24T08:20:04;8.20;99.90
37460;DHT22;23318;50.966;5.284;2023-04-24T08:22:31;8.20;99.90
37460;DHT22;23318;50.966;5.284;2023-04-24T08:24:59;8.10;99.90
37460;DHT22;23318;50.966;5.284;2023-04-24T08:27:26;8.40;99.90
37460;DHT22;23318;50.966;5.284;2023-04-24T08:29:53;8.70;99.90
37460;DHT22;23318;50.966;5.284;2023-04-24T08:32:19;8.60;99.90
37460;DHT22;23318;50.966;5.284;2023-04-24T08:34:45;8.90;99.90
37460;DHT22;23318;50.966;5.284;2023-04-24T08:37:11;9.00;99.90
37460;DHT22;23318;50.966;5.284;2023-04-24T08:39:37;8.80;99.90
37460;DHT22;23318;50.966;5.284;2023-04-24T08:42:04;8.70;99.90
37460;DHT22;23318;50.966;5.284;2023-04-24T08:44:33;8.90;99.90
37460;DHT22;23318;50.966;5.284;2023-04-24T08:46:59;8.90;99.90
37460;DHT22;23318;50.966;5.284;2023-04-24T08:49:27;9.10;99.90
37460;DHT22;23318;50.966;5.284;2023-04-24T08:51:53;9.30;99.90
37460;DHT22;23318;50.966;5.284;2023-04-24T08:54:20;9.40;99.90
37460;DHT22;23318;50.966;5.284;2023-04-24T08:56:47;9.40;99.90
37460;DHT22;23318;50.966;5.284;2023-04-24T08:59:14;9.30;99.90
37460;DHT22;23318;50.966;5.284;2023-04-24T09:01:40;9.20;99.90
37460;DHT22;23318;50.966;5.284;2023-04-24T09:04:08;9.30;99.90
37460;DHT22;23318;50.966;5.284;2023-04-24T09:06:38;9.40;99.90
37460;DHT22;23318;50.966;5.284;2023-04-24T09:09:04;9.30;99.90
37460;DHT22;23318;50.966;5.284;2023-04-24T09:11:32;9.10;99.90
37460;DHT22;23318;50.966;5.284;2023-04-24T09:14:01;8.90;99.90
37460;DHT22;23318;50.966;5.284;2023-04-24T09:16:26;8.80;99.90
37460;DHT22;23318;50.966;5.284;2023-04-24T09:18:53;8.70;99.90
37460;DHT22;23318;50.966;5.284;2023-04-24T09:21:21;8.70;99.90
37460;DHT22;23318;50.966;5.284;2023-04-24T09:23:58;8.60;99.90
37460;DHT22;23318;50.966;5.284;2023-04-24T09:26:25;8.70;99.90
37460;DHT22;23318;50.966;5.284;2023-04-24T09:28:51;8.80;99.90
37460;DHT22;23318;50.966;5.284;2023-04-24T09:31:19;8.80;99.90
37460;DHT22;23318;50.966;5.284;2023-04-24T09:34:01;9.00;99.90
37460;DHT22;23318;50.966;5.284;2023-04-24T09:36:37;9.20;99.90
37460;DHT22;23318;50.966;5.284;2023-04-24T09:39:05;9.60;99.90
37460;DHT22;23318;50.966;5.284;2023-04-24T09:41:32;10.00;99.90
37460;DHT22;23318;50.966;5.284;2023-04-24T09:46:39;10.20;99.90
37460;DHT22;23318;50.966;5.284;2023-04-24T09:49:09;10.20;99.90
37460;DHT22;23318;50.966;5.284;2023-04-24T09:51:36;10.20;99.90
37460;DHT22;23318;50.966;5.284;2023-04-24T09:54:04;10.30;99.90
37460;DHT22;23318;50.966;5.284;2023-04-24T09:56:33;10.50;99.90
37460;DHT22;23318;50.966;5.284;2023-04-24T09:59:08;10.70;99.90
37460;DHT22;23318;50.966;5.284;2023-04-24T10:01:34;10.90;99.90
37460;DHT22;23318;50.966;5.284;2023-04-24T10:04:00;11.00;99.90
37460;DHT22;23318;50.966;5.284;2023-04-24T10:06:35;11.00;99.90
37460;DHT22;23318;50.966;5.284;2023-04-24T10:09:02;11.20;99.90
37460;DHT22;23318;50.966;5.284;2023-04-24T10:11:30;11.40;99.90
37460;DHT22;23318;50.966;5.284;2023-04-24T10:13:56;11.40;99.90
37460;DHT22;23318;50.966;5.284;2023-04-24T10:16:24;11.10;99.90
37460;DHT22;23318;50.966;5.284;2023-04-24T10:18:52;10.60;99.90
37460;DHT22;23318;50.966;5.284;2023-04-24T10:21:18;10.20;99.90
37460;DHT22;23318;50.966;5.284;2023-04-24T10:23:44;10.20;99.90
37460;DHT22;23318;50.966;5.284;2023-04-24T10:26:16;10.20;99.90
37460;DHT22;23318;50.966;5.284;2023-04-24T10:28:46;10.50;99.90
37460;DHT22;23318;50.966;5.284;2023-04-24T10:31:13;10.60;99.90
37460;DHT22;23318;50.966;5.284;2023-04-24T10:33:41;10.80;99.90
37460;DHT22;23318;50.966;5.284;2023-04-24T10:36:09;10.80;99.90
37460;DHT22;23318;50.966;5.284;2023-04-24T10:38:35;11.40;99.90
37460;DHT22;23318;50.966;5.284;2023-04-24T10:41:12;11.10;99.90
37460;DHT22;23318;50.966;5.284;2023-04-24T10:43:45;11.00;99.90
37460;DHT22;23318;50.966;5.284;2023-04-24T10:46:18;11.10;99.90
37460;DHT22;23318;50.966;5.284;2023-04-24T10:48:52;11.40;99.90
37460;DHT22;23318;50.966;5.284;2023-04-24T10:51:18;11.30;99.90
37460;DHT22;23318;50.966;5.284;2023-04-24T10:53:47;11.10;99.90
37460;DHT22;23318;50.966;5.284;2023-04-24T10:56:16;10.70;99.90
37460;DHT22;23318;50.966;5.284;2023-04-24T10:58:50;10.50;99.90
37460;DHT22;23318;50.966;5.284;2023-04-24T11:01:29;10.20;99.90
37460;DHT22;23318;50.966;5.284;2023-04-24T11:04:04;10.40;99.90
37460;DHT22;23318;50.966;5.284;2023-04-24T11:09:03;10.70;99.90
37460;DHT22;23318;50.966;5.284;2023-04-24T11:11:30;10.60;99.90
37460;DHT22;23318;50.966;5.284;2023-04-24T11:21:44;10.40;99.90
37460;DHT22;23318;50.966;5.284;2023-04-24T11:24:38;10.50;99.90
37460;DHT22;23318;50.966;5.284;2023-04-24T11:30:08;11.10;99.90
37460;DHT22;23318;50.966;5.284;2023-04-24T11:37:43;10.80;99.90
37460;DHT22;23318;50.966;5.284;2023-04-24T11:40:11;10.80;99.90
37460;DHT22;23318;50.966;5.284;2023-04-24T11:42:42;10.80;99.90
37460;DHT22;23318;50.966;5.284;2023-04-24T11:47:35;11.00;99.90
37460;DHT22;23318;50.966;5.284;2023-04-24T11:50:02;11.20;99.90
37460;DHT22;23318;50.966;5.284;2023-04-24T11:52:29;11.10;99.90
37460;DHT22;23318;50.966;5.284;2023-04-24T11:54:55;11.40;99.90
37460;DHT22;23318;50.966;5.284;2023-04-24T11:57:23;11.70;99.90
37460;DHT22;23318;50.966;5.284;2023-04-24T11:59:49;11.90;99.90
37460;DHT22;23318;50.966;5.284;2023-04-24T12:04:47;12.20;99.90
37460;DHT22;23318;50.966;5.284;2023-04-24T12:07:13;12.50;99.90
37460;DHT22;23318;50.966;5.284;2023-04-24T12:09:46;13.20;99.90
37460;DHT22;23318;50.966;5.284;2023-04-24T12:12:14;13.50;99.90
37460;DHT22;23318;50.966;5.284;2023-04-24T12:14:50;12.90;99.90
37460;DHT22;23318;50.966;5.284;2023-04-24T12:17:17;12.40;99.90
37460;DHT22;23318;50.966;5.284;2023-04-24T12:19:49;12.00;99.90
37460;DHT22;23318;50.966;5.284;2023-04-24T12:22:16;12.00;99.90
37460;DHT22;23318;50.966;5.284;2023-04-24T12:25:00;12.00;99.90
37460;DHT22;23318;50.966;5.284;2023-04-24T12:27:33;11.80;99.90
37460;DHT22;23318;50.966;5.284;2023-04-24T12:30:00;12.10;99.90
37460;DHT22;23318;50.966;5.284;2023-04-24T12:32:26;12.10;99.90
37460;DHT22;23318;50.966;5.284;2023-04-24T12:34:53;12.20;99.90
37460;DHT22;23318;50.966;5.284;2023-04-24T12:37:20;12.10;99.90
37460;DHT22;23318;50.966;5.284;2023-04-24T12:42:31;12.50;99.90
37460;DHT22;23318;50.966;5.284;2023-04-24T12:45:04;12.90;99.90
37460;DHT22;23318;50.966;5.284;2023-04-24T12:47:31;12.70;99.90
37460;DHT22;23318;50.966;5.284;2023-04-24T12:49:57;12.90;99.90
37460;DHT22;23318;50.966;5.284;2023-04-24T12:52:24;12.80;99.90
37460;DHT22;23318;50.966;5.284;2023-04-24T12:54:53;12.20;99.90
37460;DHT22;23318;50.966;5.284;2023-04-24T12:57:20;12.10;99.90
37460;DHT22;23318;50.966;5.284;2023-04-24T12:59:45;12.30;99.90
37460;DHT22;23318;50.966;5.284;2023-04-24T13:02:11;12.60;99.90
37460;DHT22;23318;50.966;5.284;2023-04-24T13:04:37;12.90;99.90
37460;DHT22;23318;50.966;5.284;2023-04-24T13:07:03;13.20;99.90
37460;DHT22;23318;50.966;5.284;2023-04-24T13:09:29;13.40;99.90
37460;DHT22;23318;50.966;5.284;2023-04-24T13:11:55;15.20;98.50
37460;DHT22;23318;50.966;5.284;2023-04-24T13:14:22;14.60;98.90
37460;DHT22;23318;50.966;5.284;2023-04-24T13:16:48;14.50;99.20
37460;DHT22;23318;50.966;5.284;2023-04-24T13:19:13;14.70;98.80
37460;DHT22;23318;50.966;5.284;2023-04-24T13:21:39;14.10;99.50
37460;DHT22;23318;50.966;5.284;2023-04-24T13:24:05;14.00;99.30
37460;DHT22;23318;50.966;5.284;2023-04-24T13:26:33;14.00;99.60
37460;DHT22;23318;50.966;5.284;2023-04-24T13:28:58;14.00;99.90
37460;DHT22;23318;50.966;5.284;2023-04-24T13:31:24;14.00;99.20
37460;DHT22;23318;50.966;5.284;2023-04-24T13:33:50;16.20;97.00
37460;DHT22;23318;50.966;5.284;2023-04-24T13:36:16;17.90;96.00
37460;DHT22;23318;50.966;5.284;2023-04-24T13:38:43;18.50;94.90
37460;DHT22;23318;50.966;5.284;2023-04-24T13:41:10;17.70;95.00
37460;DHT22;23318;50.966;5.284;2023-04-24T13:43:35;16.70;95.90
37460;DHT22;23318;50.966;5.284;2023-04-24T13:46:01;15.70;96.40
37460;DHT22;23318;50.966;5.284;2023-04-24T13:48:29;16.60;95.70
37460;DHT22;23318;50.966;5.284;2023-04-24T13:50:55;17.40;95.80
37460;DHT22;23318;50.966;5.284;2023-04-24T13:53:21;18.20;95.20
37460;DHT22;23318;50.966;5.284;2023-04-24T13:55:47;19.00;94.10
37460;DHT22;23318;50.966;5.284;2023-04-24T13:58:13;17.60;94.00
37460;DHT22;23318;50.966;5.284;2023-04-24T14:00:39;17.80;94.50
37460;DHT22;23318;50.966;5.284;2023-04-24T14:03:04;15.80;95.20
37460;DHT22;23318;50.966;5.284;2023-04-24T14:05:30;17.10;94.80
37460;DHT22;23318;50.966;5.284;2023-04-24T14:07:56;18.80;94.60
37460;DHT22;23318;50.966;5.284;2023-04-24T14:10:22;17.30;94.20
37460;DHT22;23318;50.966;5.284;2023-04-24T14:12:47;16.10;95.10
37460;DHT22;23318;50.966;5.284;2023-04-24T14:15:13;15.70;96.00
37460;DHT22;23318;50.966;5.284;2023-04-24T14:17:39;15.50;96.10
37460;DHT22;23318;50.966;5.284;2023-04-24T14:20:06;15.00;96.40
37460;DHT22;23318;50.966;5.284;2023-04-24T14:22:32;14.80;96.50
37460;DHT22;23318;50.966;5.284;2023-04-24T14:24:58;16.00;95.40
37460;DHT22;23318;50.966;5.284;2023-04-24T14:27:24;17.30;95.20
37460;DHT22;23318;50.966;5.284;2023-04-24T14:29:50;17.70;94.90
37460;DHT22;23318;50.966;5.284;2023-04-24T14:32:16;18.30;94.20
37460;DHT22;23318;50.966;5.284;2023-04-24T14:34:41;17.50;94.50
37460;DHT22;23318;50.966;5.284;2023-04-24T14:37:07;15.80;94.90
37460;DHT22;23318;50.966;5.284;2023-04-24T14:39:33;15.70;96.40
37460;DHT22;23318;50.966;5.284;2023-04-24T14:41:59;17.30;95.00
37460;DHT22;23318;50.966;5.284;2023-04-24T14:44:26;18.60;94.40
37460;DHT22;23318;50.966;5.284;2023-04-24T14:46:51;18.90;93.30
37460;DHT22;23318;50.966;5.284;2023-04-24T14:49:17;17.50;94.20
37460;DHT22;23318;50.966;5.284;2023-04-24T14:51:43;17.30;94.50
37460;DHT22;23318;50.966;5.284;2023-04-24T14:54:08;18.60;94.10
37460;DHT22;23318;50.966;5.284;2023-04-24T14:56:34;18.60;93.50
37460;DHT22;23318;50.966;5.284;2023-04-24T14:59:01;17.70;93.80
37460;DHT22;23318;50.966;5.284;2023-04-24T15:01:26;17.30;94.10
37460;DHT22;23318;50.966;5.284;2023-04-24T15:03:52;16.00;94.90
37460;DHT22;23318;50.966;5.284;2023-04-24T15:06:18;15.70;94.70
37460;DHT22;23318;50.966;5.284;2023-04-24T15:08:43;16.10;94.90
37460;DHT22;23318;50.966;5.284;2023-04-24T15:11:10;19.10;93.20
37460;DHT22;23318;50.966;5.284;2023-04-24T15:13:36;20.40;92.30
37460;DHT22;23318;50.966;5.284;2023-04-24T15:16:02;18.80;92.40
37460;DHT22;23318;50.966;5.284;2023-04-24T15:18:28;17.50;92.80
37460;DHT22;23318;50.966;5.284;2023-04-24T15:20:55;17.00;92.90
37460;DHT22;23318;50.966;5.284;2023-04-24T15:23:21;17.40;92.50
37460;DHT22;23318;50.966;5.284;2023-04-24T15:25:46;17.50;93.20
37460;DHT22;23318;50.966;5.284;2023-04-24T15:28:12;18.30;92.00
37460;DHT22;23318;50.966;5.284;2023-04-24T15:30:38;16.70;93.10
37460;DHT22;23318;50.966;5.284;2023-04-24T15:33:04;16.00;93.80
37460;DHT22;23318;50.966;5.284;2023-04-24T15:35:29;17.40;93.30
37460;DHT22;23318;50.966;5.284;2023-04-24T15:37:55;17.50;92.90
37460;DHT22;23318;50.966;5.284;2023-04-24T15:40:21;16.30;93.30
37460;DHT22;23318;50.966;5.284;2023-04-24T15:42:47;15.70;94.00
37460;DHT22;23318;50.966;5.284;2023-04-24T15:45:13;14.80;94.30
37460;DHT22;23318;50.966;5.284;2023-04-24T15:47:39;14.40;94.80
37460;DHT22;23318;50.966;5.284;2023-04-24T15:50:05;13.70;95.70
37460;DHT22;23318;50.966;5.284;2023-04-24T15:52:34;13.80;96.00
37460;DHT22;23318;50.966;5.284;2023-04-24T15:55:00;14.00;95.60
37460;DHT22;23318;50.966;5.284;2023-04-24T15:57:26;14.00;95.80
37460;DHT22;23318;50.966;5.284;2023-04-24T15:59:52;13.80;95.80
37460;DHT22;23318;50.966;5.284;2023-04-24T16:02:17;14.00;95.70
37460;DHT22;23318;50.966;5.284;2023-04-24T16:04:45;13.80;95.90